createdAt,value
2019-02-28T00:02:28.738Z,64.68
2019-02-28T00:04:59.070Z,64.30
2019-02-28T00:07:29.495Z,64.33
2019-02-28T00:09:59.910Z,64.50
2019-02-28T00:12:30.405Z,64.86
2019-02-28T00:15:00.804Z,64.48
2019-02-28T00:17:31.100Z,64.21
2019-02-28T00:20:01.508Z,64.63
2019-02-28T00:22:31.925Z,64.87
2019-02-28T00:25:04.190Z,64.98
2019-02-28T00:27:34.473Z,64.28
2019-02-28T00:30:06.208Z,66.00
2019-02-28T00:32:37.197Z,66.68
2019-02-28T00:35:13.012Z,65.77
2019-02-28T00:37:39.989Z,66.60
2019-02-28T00:40:10.632Z,66.35
2019-02-28T00:42:41.064Z,66.09
2019-02-28T00:45:12.259Z,65.72
2019-02-28T00:47:42.978Z,66.37
2019-02-28T00:50:13.908Z,66.20
2019-02-28T00:52:44.550Z,65.95
2019-02-28T00:55:15.653Z,66.77
2019-02-28T00:57:46.211Z,68.03
2019-02-28T01:00:17.626Z,69.76
2019-02-28T01:02:52.152Z,68.35
2019-02-28T01:05:20.471Z,67.92
2019-02-28T01:07:50.984Z,67.97
2019-02-28T01:10:21.560Z,66.41
2019-02-28T01:12:54.383Z,66.27
2019-02-28T01:15:24.244Z,66.24
2019-02-28T01:17:57.222Z,67.03
2019-02-28T01:20:26.708Z,67.72
2019-02-28T01:22:58.533Z,67.65
2019-02-28T01:25:29.263Z,67.33
2019-02-28T01:27:59.717Z,67.03
2019-02-28T01:30:30.130Z,66.82
2019-02-28T01:33:00.533Z,66.21
2019-02-28T01:35:30.932Z,66.70
2019-02-28T01:38:01.378Z,66.88
2019-02-28T01:40:31.786Z,67.15
2019-02-28T01:43:02.165Z,67.71
2019-02-28T01:45:32.652Z,66.94
2019-02-28T01:48:03.087Z,66.46
2019-02-28T01:50:33.515Z,66.94
2019-02-28T01:53:03.995Z,67.35
2019-02-28T01:55:34.344Z,67.37
2019-02-28T01:58:04.862Z,67.07
2019-02-28T02:00:35.331Z,66.11
2019-02-28T02:03:05.790Z,66.35
2019-02-28T02:05:36.337Z,66.98
2019-02-28T02:08:07.455Z,66.13
2019-02-28T02:10:37.905Z,66.97
2019-02-28T02:13:08.297Z,67.32
2019-02-28T02:15:38.731Z,66.84
2019-02-28T02:18:10.020Z,66.24
2019-02-28T02:20:40.665Z,66.52
2019-02-28T02:23:11.121Z,66.59
2019-02-28T02:25:41.468Z,66.67
2019-02-28T02:28:11.871Z,66.23
2019-02-28T02:30:42.369Z,66.07
2019-02-28T02:33:14.400Z,66.27
2019-02-28T02:35:45.052Z,67.17
2019-02-28T02:38:15.535Z,66.39
2019-02-28T02:40:46.100Z,66.58
2019-02-28T02:43:16.539Z,66.25
2019-02-28T02:45:46.841Z,66.28
2019-02-28T02:48:17.249Z,66.03
2019-02-28T02:50:47.768Z,66.19
2019-02-28T02:53:18.317Z,65.80
2019-02-28T02:55:48.841Z,66.33
2019-02-28T02:58:19.111Z,66.36
2019-02-28T03:00:51.350Z,65.93
2019-02-28T03:03:21.754Z,66.72
2019-02-28T03:05:52.222Z,66.64
2019-02-28T03:08:22.707Z,66.10
2019-02-28T03:10:53.307Z,66.46
2019-02-28T03:13:23.688Z,66.78
2019-02-28T03:15:54.104Z,66.51
2019-02-28T03:18:24.432Z,66.44
2019-02-28T03:20:54.945Z,66.59
2019-02-28T03:23:25.316Z,66.86
2019-02-28T03:26:14.666Z,66.73
2019-02-28T03:28:45.052Z,67.72
2019-02-28T03:31:16.028Z,67.48
2019-02-28T03:33:46.989Z,68.44
2019-02-28T03:36:17.562Z,67.97
2019-02-28T03:38:49.666Z,67.75
2019-02-28T03:41:19.952Z,67.45
2019-02-28T03:43:50.250Z,66.84
2019-02-28T03:46:20.667Z,67.10
2019-02-28T03:48:51.131Z,67.11
2019-02-28T03:51:21.417Z,66.72
2019-02-28T03:53:55.539Z,67.02
2019-02-28T03:56:24.149Z,67.06
2019-02-28T03:58:54.795Z,67.24
2019-02-28T04:01:25.176Z,67.15
2019-02-28T04:03:55.631Z,67.23
2019-02-28T04:06:26.067Z,67.46
2019-02-28T04:08:56.596Z,67.20
2019-02-28T04:11:30.773Z,67.02
2019-02-28T04:13:59.489Z,66.94
2019-02-28T04:16:29.975Z,67.09
2019-02-28T04:19:00.923Z,67.29
2019-02-28T04:21:31.514Z,67.28
2019-02-28T04:24:01.841Z,67.28
2019-02-28T04:26:32.371Z,67.56
2019-02-28T04:29:02.732Z,67.35
2019-02-28T04:31:33.518Z,67.29
2019-02-28T04:34:04.053Z,67.16
2019-02-28T04:36:35.835Z,67.29
2019-02-28T04:39:09.190Z,67.19
2019-02-28T04:41:39.687Z,67.06
2019-02-28T04:44:10.083Z,66.92
2019-02-28T04:46:40.556Z,67.06
2019-02-28T04:49:11.037Z,67.02
2019-02-28T04:51:41.390Z,66.44
2019-02-28T04:54:11.732Z,66.23
2019-02-28T04:56:42.380Z,66.36
2019-02-28T04:59:14.144Z,65.99
2019-02-28T05:01:46.177Z,66.14
2019-02-28T05:04:16.923Z,66.23
2019-02-28T05:06:47.342Z,66.25
2019-02-28T05:09:17.692Z,67.02
2019-02-28T05:11:48.052Z,67.05
2019-02-28T05:14:23.487Z,67.02
2019-02-28T05:16:50.616Z,66.80
2019-02-28T05:19:21.066Z,66.51
2019-02-28T05:21:53.552Z,66.66
2019-02-28T05:24:23.596Z,67.17
2019-02-28T05:26:53.993Z,66.88
2019-02-28T05:29:24.381Z,66.54
2019-02-28T05:31:54.821Z,66.82
2019-02-28T05:34:25.287Z,66.73
2019-02-28T05:36:55.750Z,66.93
2019-02-28T05:39:28.191Z,67.02
2019-02-28T05:41:58.077Z,66.91
2019-02-28T05:44:30.326Z,67.00
2019-02-28T05:47:00.732Z,66.97
2019-02-28T05:49:31.157Z,66.98
2019-02-28T05:52:01.637Z,67.37
2019-02-28T05:54:32.003Z,67.44
2019-02-28T05:57:04.634Z,67.54
2019-02-28T05:59:34.531Z,67.32
2019-02-28T06:02:05.147Z,67.12
2019-02-28T06:04:37.883Z,67.17
2019-02-28T06:07:09.431Z,67.12
2019-02-28T06:09:39.963Z,67.84
2019-02-28T06:12:10.457Z,67.30
2019-02-28T06:14:40.865Z,67.61
2019-02-28T06:17:11.269Z,67.33
2019-02-28T06:19:43.635Z,67.07
2019-02-28T06:22:13.902Z,67.27
2019-02-28T06:24:45.096Z,67.40
2019-02-28T06:27:16.254Z,66.74
2019-02-28T06:29:47.879Z,66.93
2019-02-28T06:32:23.281Z,66.60
2019-02-28T06:34:50.399Z,67.26
2019-02-28T06:37:20.848Z,67.09
2019-02-28T06:39:51.251Z,67.12
2019-02-28T06:42:21.574Z,67.44
2019-02-28T06:44:51.944Z,67.30
2019-02-28T06:47:22.342Z,67.30
2019-02-28T06:49:52.910Z,67.00
2019-02-28T06:52:25.206Z,67.13
2019-02-28T06:54:55.441Z,67.11
2019-02-28T06:57:26.847Z,66.45
2019-02-28T06:59:58.042Z,66.62
2019-02-28T07:02:31.388Z,65.83
2019-02-28T07:05:00.610Z,66.05
2019-02-28T07:07:31.039Z,66.45
2019-02-28T07:10:01.490Z,66.82
2019-02-28T07:12:33.146Z,66.31
2019-02-28T07:15:03.613Z,65.68
2019-02-28T07:17:34.139Z,65.23
2019-02-28T07:20:05.032Z,64.31
2019-02-28T07:22:35.517Z,63.87
2019-02-28T07:25:09.464Z,61.94
2019-02-28T07:27:38.562Z,59.39
2019-02-28T07:30:17.511Z,57.67
2019-02-28T07:32:45.068Z,57.73
2019-02-28T07:35:15.569Z,58.15
2019-02-28T07:37:46.084Z,59.44
2019-02-28T07:40:17.333Z,59.14
2019-02-28T07:42:48.214Z,58.53
2019-02-28T07:45:18.735Z,57.63
2019-02-28T07:47:52.623Z,55.34
2019-02-28T07:50:21.386Z,54.38
2019-02-28T07:52:53.202Z,52.86
2019-02-28T07:55:27.284Z,52.06
2019-02-28T07:57:56.625Z,50.06
2019-02-28T08:00:27.270Z,45.74
2019-02-28T08:02:57.719Z,39.28
2019-02-28T08:05:30.988Z,34.27
2019-02-28T08:08:00.246Z,31.81
2019-02-28T08:10:30.751Z,29.88
2019-02-28T08:13:03.061Z,27.82
2019-02-28T08:15:33.508Z,25.37
2019-02-28T08:18:05.761Z,23.49
2019-02-28T08:20:36.132Z,20.67
2019-02-28T08:23:06.574Z,18.28
2019-02-28T08:25:39.686Z,17.01
2019-02-28T08:28:09.214Z,16.90
2019-02-28T08:30:39.734Z,16.76
2019-02-28T08:33:10.212Z,16.58
2019-02-28T08:35:41.742Z,16.47
2019-02-28T08:38:12.169Z,15.73
2019-02-28T08:40:42.563Z,15.68
2019-02-28T08:43:13.473Z,16.20
2019-02-28T08:45:44.529Z,15.81
2019-02-28T08:48:14.979Z,15.84
2019-02-28T08:50:45.721Z,16.05
2019-02-28T08:53:16.798Z,15.75
2019-02-28T08:55:47.250Z,15.13
2019-02-28T08:58:17.736Z,15.34
2019-02-28T09:00:48.167Z,15.28
2019-02-28T09:03:18.583Z,15.21
2019-02-28T09:05:49.010Z,15.05
2019-02-28T09:08:22.483Z,14.71
2019-02-28T09:10:51.629Z,15.02
2019-02-28T09:13:22.099Z,15.23
2019-02-28T09:15:52.446Z,16.30
2019-02-28T09:18:22.951Z,16.14
2019-02-28T09:20:53.328Z,16.29
2019-02-28T09:23:23.839Z,16.30
2019-02-28T09:25:56.594Z,15.28
2019-02-28T09:28:26.239Z,15.87
2019-02-28T09:30:57.049Z,15.51
2019-02-28T09:33:27.541Z,15.18
2019-02-28T09:35:58.005Z,14.98
2019-02-28T09:38:45.259Z,14.72
2019-02-28T09:41:15.352Z,14.44
2019-02-28T09:43:45.849Z,14.49
2019-02-28T09:46:16.437Z,15.31
2019-02-28T09:48:46.909Z,16.13
2019-02-28T09:51:17.388Z,16.85
2019-02-28T09:53:50.278Z,16.39
2019-02-28T09:56:20.544Z,15.63
2019-02-28T09:58:51.043Z,16.30
2019-02-28T10:01:24.506Z,16.00
2019-02-28T10:03:55.344Z,15.80
2019-02-28T10:06:26.084Z,15.59
2019-02-28T10:08:56.516Z,16.22
2019-02-28T10:11:31.393Z,16.17
2019-02-28T10:13:59.223Z,16.42
2019-02-28T10:16:29.651Z,16.16
2019-02-28T10:19:00.073Z,16.15
2019-02-28T10:21:33.329Z,16.51
2019-02-28T10:24:02.452Z,17.11
2019-02-28T10:26:32.876Z,17.87
2019-02-28T10:29:04.496Z,18.69
2019-02-28T10:31:38.339Z,19.08
2019-02-28T10:34:07.713Z,18.79
2019-02-28T10:36:38.171Z,17.92
2019-02-28T10:39:09.753Z,17.12
2019-02-28T10:41:40.308Z,16.96
2019-02-28T10:44:10.645Z,17.34
2019-02-28T10:46:41.088Z,17.87
2019-02-28T10:49:11.518Z,18.48
2019-02-28T10:51:44.652Z,18.02
2019-02-28T10:54:14.555Z,18.63
2019-02-28T10:56:46.298Z,19.86
2019-02-28T10:59:16.721Z,21.00
2019-02-28T11:01:47.357Z,21.72
2019-02-28T11:04:17.777Z,21.99
2019-02-28T11:06:48.246Z,23.13
2019-02-28T11:09:25.117Z,24.36
2019-02-28T11:11:53.585Z,25.52
2019-02-28T11:14:24.099Z,25.95
2019-02-28T11:16:59.098Z,26.72
2019-02-28T11:19:26.899Z,27.05
2019-02-28T11:21:57.320Z,26.71
2019-02-28T11:24:27.847Z,27.06
2019-02-28T11:26:58.376Z,27.09
2019-02-28T11:29:28.768Z,27.02
2019-02-28T11:31:59.432Z,26.91
2019-02-28T11:34:29.870Z,27.07
2019-02-28T11:37:00.180Z,27.25
2019-02-28T11:39:33.650Z,27.73
2019-02-28T11:42:02.876Z,27.38
2019-02-28T11:44:36.542Z,27.39
2019-02-28T11:47:08.329Z,27.22
2019-02-28T11:49:39.310Z,27.33
2019-02-28T11:52:11.092Z,27.79
2019-02-28T11:54:45.227Z,27.49
2019-02-28T11:57:14.286Z,27.10
2019-02-28T11:59:44.793Z,26.72
2019-02-28T12:02:15.391Z,26.20
2019-02-28T12:04:45.892Z,25.68
2019-02-28T12:07:16.407Z,24.42
2019-02-28T12:09:48.122Z,23.44
2019-02-28T12:12:20.032Z,23.11
2019-02-28T12:14:53.234Z,22.43
2019-02-28T12:17:28.602Z,21.26
2019-02-28T12:19:58.870Z,21.04
2019-02-28T12:22:29.607Z,20.86
2019-02-28T12:25:07.648Z,20.95
2019-02-28T12:27:37.214Z,21.25
2019-02-28T12:30:18.643Z,21.66
2019-02-28T12:32:47.032Z,21.65
2019-02-28T12:35:17.632Z,21.00
2019-02-28T12:37:48.386Z,20.85
2019-02-28T12:40:22.518Z,21.19
2019-02-28T12:42:53.045Z,21.62
2019-02-28T12:45:30.467Z,21.58
2019-02-28T12:48:00.961Z,22.15
2019-02-28T12:50:31.674Z,21.29
2019-02-28T12:53:02.020Z,21.44
2019-02-28T12:55:35.482Z,21.77
2019-02-28T12:58:04.737Z,21.72
2019-02-28T13:00:40.295Z,22.14
2019-02-28T13:03:11.110Z,22.22
2019-02-28T13:05:41.737Z,22.34
2019-02-28T13:08:12.162Z,22.20
2019-02-28T13:10:42.679Z,22.61
2019-02-28T13:13:13.153Z,22.22
2019-02-28T13:15:45.395Z,22.32
2019-02-28T13:18:18.154Z,22.09
2019-02-28T13:20:48.940Z,22.68
2019-02-28T13:23:22.173Z,23.06
2019-02-28T13:25:59.201Z,22.84
2019-02-28T13:28:33.722Z,23.10
2019-02-28T13:31:04.750Z,22.86
2019-02-28T13:33:35.840Z,23.49
2019-02-28T13:36:09.408Z,23.46
2019-02-28T13:38:39.900Z,23.64
2019-02-28T13:41:10.420Z,24.67
2019-02-28T13:43:41.036Z,25.41
2019-02-28T13:46:13.051Z,25.69
2019-02-28T13:48:45.564Z,26.56
2019-02-28T13:51:16.356Z,27.21
2019-02-28T13:53:47.344Z,27.70
2019-02-28T13:56:20.674Z,28.09
2019-02-28T13:58:53.746Z,28.77
2019-02-28T14:01:23.315Z,28.80
2019-02-28T14:03:54.033Z,29.41
2019-02-28T14:06:25.025Z,29.51
2019-02-28T14:08:56.263Z,30.28
2019-02-28T14:11:27.555Z,30.40
2019-02-28T14:13:59.133Z,30.61
2019-02-28T14:16:29.608Z,31.01
2019-02-28T14:19:00.082Z,31.17
2019-02-28T14:21:30.529Z,31.45
2019-02-28T14:24:01.081Z,31.39
2019-02-28T14:26:32.629Z,32.22
2019-02-28T14:29:03.136Z,32.01
2019-02-28T14:31:33.872Z,32.17
2019-02-28T14:34:04.332Z,32.46
2019-02-28T14:36:34.739Z,32.25
2019-02-28T14:39:09.305Z,32.38
2019-02-28T14:41:39.942Z,32.41
2019-02-28T14:44:10.415Z,32.73
2019-02-28T14:46:40.790Z,32.47
2019-02-28T14:49:12.468Z,32.76
2019-02-28T14:51:43.402Z,32.79
2019-02-28T14:54:13.757Z,33.14
2019-02-28T14:56:44.221Z,33.35
2019-02-28T14:59:14.643Z,33.44
2019-02-28T15:01:45.169Z,33.64
2019-02-28T15:04:15.580Z,34.00
2019-02-28T15:06:47.344Z,34.07
2019-02-28T15:09:19.156Z,34.32
2019-02-28T15:11:49.676Z,34.26
2019-02-28T15:14:20.079Z,33.95
2019-02-28T15:16:50.441Z,33.97
2019-02-28T15:19:21.374Z,34.11
2019-02-28T15:21:53.136Z,34.37
2019-02-28T15:24:23.657Z,34.42
2019-02-28T15:26:54.183Z,34.22
2019-02-28T15:29:26.833Z,34.41
2019-02-28T15:31:56.807Z,33.89
2019-02-28T15:34:28.876Z,34.02
2019-02-28T15:37:00.284Z,34.39
2019-02-28T15:39:30.826Z,34.39
2019-02-28T15:42:01.167Z,34.73
2019-02-28T15:44:31.544Z,34.88
2019-02-28T15:47:01.964Z,34.99
2019-02-28T15:49:34.350Z,35.35
2019-02-28T15:52:05.258Z,35.65
2019-02-28T15:54:36.820Z,35.96
2019-02-28T15:57:07.348Z,36.13
2019-02-28T15:59:37.844Z,36.23
2019-02-28T16:02:08.298Z,36.76
2019-02-28T16:04:38.706Z,37.01
2019-02-28T16:07:09.098Z,36.93
2019-02-28T16:09:39.550Z,37.36
2019-02-28T16:12:12.508Z,37.25
2019-02-28T16:14:42.544Z,37.79
2019-02-28T16:17:13.115Z,37.75
2019-02-28T16:19:43.468Z,37.92
2019-02-28T16:22:14.621Z,37.80
2019-02-28T16:24:46.042Z,38.37
2019-02-28T16:27:16.537Z,38.35
2019-02-28T16:29:46.887Z,38.46
2019-02-28T16:32:17.282Z,38.82
2019-02-28T16:34:47.596Z,39.16
2019-02-28T16:37:18.039Z,39.27
2019-02-28T16:39:49.112Z,39.44
2019-02-28T16:42:21.572Z,39.56
2019-02-28T16:44:52.241Z,39.60
2019-02-28T16:47:24.365Z,39.71
2019-02-28T16:49:54.891Z,39.80
2019-02-28T16:52:25.240Z,40.08
2019-02-28T16:54:56.330Z,40.04
2019-02-28T16:57:27.360Z,40.23
2019-02-28T16:59:57.884Z,40.35
2019-02-28T17:02:29.290Z,40.42
2019-02-28T17:05:00.561Z,40.41
2019-02-28T17:07:36.484Z,40.49
2019-02-28T17:10:10.898Z,40.80
2019-02-28T17:13:04.132Z,40.72
2019-02-28T17:15:55.867Z,41.06
2019-02-28T17:18:26.014Z,41.01
2019-02-28T17:20:56.580Z,41.06
2019-02-28T17:23:26.875Z,41.28
2019-02-28T17:25:57.663Z,41.43
2019-02-28T17:29:05.486Z,41.38
2019-02-28T17:31:47.735Z,41.53
2019-02-28T17:34:23.995Z,41.63
2019-02-28T17:36:52.081Z,42.12
2019-02-28T17:39:22.482Z,42.31
2019-02-28T17:41:53.015Z,42.58
2019-02-28T17:44:59.532Z,42.78
2019-02-28T17:47:58.867Z,43.04
2019-02-28T17:51:10.621Z,43.39
2019-02-28T17:54:17.319Z,43.65
2019-02-28T17:57:52.380Z,43.83
2019-02-28T18:01:25.393Z,44.09
2019-02-28T18:05:03.766Z,44.35
2019-02-28T18:08:42.979Z,44.45
2019-02-28T18:12:23.444Z,44.82
2019-02-28T18:15:46.950Z,44.92
2019-02-28T18:19:36.813Z,45.27
2019-02-28T18:22:26.487Z,45.40
2019-02-28T18:25:41.887Z,45.77
2019-02-28T18:29:09.905Z,45.99
2019-02-28T18:31:41.925Z,46.22
2019-02-28T18:34:24.370Z,46.26
2019-02-28T18:36:54.773Z,46.53
2019-02-28T18:39:25.463Z,46.58
2019-02-28T18:41:56.086Z,46.73
2019-02-28T18:44:27.822Z,46.79
2019-02-28T18:46:58.348Z,46.71
2019-02-28T18:49:29.399Z,46.99
2019-02-28T18:52:00.548Z,47.42
2019-02-28T18:54:31.027Z,47.74
2019-02-28T18:57:01.441Z,47.92
2019-02-28T18:59:32.995Z,48.10
2019-02-28T19:02:03.534Z,48.42
2019-02-28T19:04:36.557Z,48.41
2019-02-28T19:07:10.834Z,48.89
2019-02-28T19:09:41.321Z,49.31
2019-02-28T19:12:13.836Z,49.47
2019-02-28T19:14:45.901Z,49.64
2019-02-28T19:17:17.016Z,49.70
2019-02-28T19:19:49.076Z,49.61
2019-02-28T19:22:19.680Z,49.47
2019-02-28T19:24:50.132Z,49.50
2019-02-28T19:27:20.660Z,49.65
2019-02-28T19:29:51.086Z,50.38
2019-02-28T19:32:21.584Z,50.48
2019-02-28T19:34:51.977Z,49.96
2019-02-28T19:37:22.422Z,49.90
2019-02-28T19:39:54.498Z,49.91
2019-02-28T19:42:25.802Z,49.79
2019-02-28T19:44:59.598Z,49.72
2019-02-28T19:47:29.943Z,49.85
2019-02-28T19:50:00.443Z,50.05
2019-02-28T19:52:30.982Z,50.11
2019-02-28T19:55:01.417Z,50.08
2019-02-28T19:57:32.142Z,49.85
2019-02-28T20:00:02.621Z,49.88
2019-02-28T20:02:34.310Z,49.92
2019-02-28T20:05:07.748Z,49.96
2019-02-28T20:07:41.064Z,50.26
2019-02-28T20:10:17.297Z,50.40
2019-02-28T20:12:49.089Z,50.45
2019-02-28T20:15:21.378Z,51.07
2019-02-28T20:17:51.759Z,51.53
2019-02-28T20:20:23.396Z,51.79
2019-02-28T20:22:56.556Z,51.97
2019-02-28T20:25:30.107Z,52.13
2019-02-28T20:28:00.569Z,52.29
2019-02-28T20:30:32.860Z,52.48
2019-02-28T20:33:03.323Z,52.65
2019-02-28T20:35:33.889Z,52.95
2019-02-28T20:38:04.404Z,53.34
2019-02-28T20:40:34.856Z,53.25
2019-02-28T20:43:05.663Z,53.21
2019-02-28T20:45:36.003Z,53.35
2019-02-28T20:48:06.453Z,52.95
2019-02-28T20:50:40.840Z,52.96
2019-02-28T20:53:11.262Z,53.17
2019-02-28T20:55:41.636Z,53.18
2019-02-28T20:58:11.936Z,53.00
2019-02-28T21:00:42.323Z,53.31
2019-02-28T21:03:12.868Z,53.45
2019-02-28T21:05:43.317Z,53.38
2019-02-28T21:08:13.701Z,53.53
2019-02-28T21:10:44.197Z,53.65
2019-02-28T21:13:14.589Z,53.60
2019-02-28T21:15:45.080Z,53.89
2019-02-28T21:18:15.587Z,54.17
2019-02-28T21:20:46.007Z,54.13
2019-02-28T21:23:16.464Z,54.25
2019-02-28T21:25:46.812Z,54.28
2019-02-28T21:28:17.437Z,54.79
2019-02-28T21:30:47.826Z,57.65
2019-02-28T21:33:18.304Z,55.73
2019-02-28T21:35:48.853Z,53.64
2019-02-28T21:38:19.307Z,53.87
2019-02-28T21:40:49.723Z,54.71
2019-02-28T21:43:20.188Z,55.22
2019-02-28T21:45:50.670Z,55.68
2019-02-28T21:48:21.075Z,56.11
2019-02-28T21:50:51.416Z,56.42
2019-02-28T21:53:21.839Z,56.72
2019-02-28T21:55:52.251Z,57.03
2019-02-28T21:58:22.665Z,57.19
2019-02-28T22:00:53.143Z,57.16
2019-02-28T22:03:23.530Z,57.42
2019-02-28T22:05:53.878Z,57.43
2019-02-28T22:08:24.240Z,57.61
2019-02-28T22:10:54.678Z,57.56
2019-02-28T22:13:24.994Z,57.55
2019-02-28T22:15:55.398Z,57.52
2019-02-28T22:18:25.748Z,57.77
2019-02-28T22:20:56.211Z,57.61
2019-02-28T22:23:28.262Z,57.51
2019-02-28T22:25:58.648Z,57.44
2019-02-28T22:28:29.141Z,57.23
2019-02-28T22:31:27.141Z,57.39
2019-02-28T22:34:12.423Z,57.41
2019-02-28T22:36:44.838Z,57.47
2019-02-28T22:39:15.246Z,57.33
2019-02-28T22:41:45.542Z,57.47
2019-02-28T22:44:15.819Z,57.61
2019-02-28T22:46:46.299Z,57.83
2019-02-28T22:49:16.719Z,57.88
2019-02-28T22:51:47.045Z,57.93
2019-02-28T22:54:17.495Z,57.75
2019-02-28T22:56:47.970Z,57.56
2019-02-28T22:59:18.358Z,57.56
2019-02-28T23:01:49.059Z,57.37
2019-02-28T23:04:19.431Z,57.69
2019-02-28T23:06:49.771Z,57.79
2019-02-28T23:09:20.325Z,58.15
2019-02-28T23:11:50.779Z,58.26
2019-02-28T23:14:21.185Z,58.39
2019-02-28T23:16:51.534Z,58.34
2019-02-28T23:19:21.951Z,58.47
2019-02-28T23:21:52.219Z,58.53
2019-02-28T23:24:22.623Z,58.35
2019-02-28T23:27:12.773Z,58.61
2019-02-28T23:30:32.676Z,58.80
2019-02-28T23:33:07.942Z,59.23
2019-02-28T23:35:44.871Z,59.60
2019-02-28T23:38:15.435Z,59.61
2019-02-28T23:40:46.073Z,59.85
2019-02-28T23:43:16.603Z,59.94
2019-02-28T23:45:47.500Z,60.10
2019-02-28T23:48:18.131Z,60.04
2019-02-28T23:50:48.463Z,60.29
2019-02-28T23:53:18.964Z,60.42
2019-02-28T23:55:49.447Z,60.51
2019-02-28T23:58:19.956Z,60.44
